This is the latest recevied weather packets stored in our database for station/object VK2HIM-1. If no packets are shown the sender has not sent any weather packets the latest 10 day(s).
| Time | Temp. | Humidity | Pressure | Rain* | Wind** | Luminosity | Snow |
|---|---|---|---|---|---|---|---|
| 1777790026 | 22.22° C | 81% | 1017.2 hPa | 0 mm | - | - | - |
| 1777788226 | 22.22° C | 80% | 1017.4 hPa | 0 mm | - | - | - |
| 1777786426 | 22.78° C | 78% | 1017.7 hPa | 0 mm | - | - | - |
| 1777784626 | 22.78° C | 78% | 1017.9 hPa | 0 mm | - | - | - |
| 1777782826 | 23.33° C | 76% | 1018 hPa | 0 mm | - | - | - |
| 1777781026 | 22.78° C | 76% | 1018.2 hPa | 0 mm | - | - | - |
| 1777779228 | 22.78° C | 76% | 1018.5 hPa | 0 mm | - | - | - |
| 1777777428 | 22.22° C | 76% | 1019.1 hPa | 0 mm | - | - | - |
| 1777775628 | 22.22° C | 75% | 1019.3 hPa | 0 mm | - | - | - |
| 1777773828 | 22.22° C | 73% | 1019.7 hPa | 0 mm | - | - | - |
| 1777772028 | 22.78° C | 71% | 1020.2 hPa | 0 mm | - | - | - |
| 1777770227 | 22.78° C | 66% | 1020.6 hPa | 0 mm | - | - | - |
| 1777768427 | 22.22° C | 67% | 1020.6 hPa | 0 mm | - | - | - |
| 1777766627 | 22.78° C | 68% | 1021.1 hPa | 0 mm | - | - | - |
| 1777764827 | 22.22° C | 69% | 1021 hPa | 0 mm | - | - | - |
| 1777763026 | 21.67° C | 71% | 1021.2 hPa | 0 mm | - | - | - |
| 1777761226 | 21.11° C | 72% | 1021.4 hPa | 0 mm | - | - | - |
| 1777759426 | 20.56° C | 74% | 1021.4 hPa | 0 mm | - | - | - |
| 1777757626 | 20° C | 75% | 1021.4 hPa | 0 mm | - | - | - |
| 1777755826 | 20° C | 76% | 1020.9 hPa | 0 mm | - | - | - |
| 1777754026 | 20° C | 77% | 1020.7 hPa | 0 mm | - | - | - |
| 1777752226 | 20° C | 77% | 1020.7 hPa | 0 mm | - | - | - |
| 1777750429 | 20° C | 78% | 1020.6 hPa | 0 mm | - | - | - |
| 1777748628 | 20° C | 78% | 1020.8 hPa | 0 mm | - | - | - |
| 1777746827 | 20° C | 79% | 1020.7 hPa | 0 mm | - | - | - |
* Rain latest hour (hover to see other rain measurements)
** Current wind speed in m/s (hover to see current wind gust speed)